Terminal Aerodrome Forecast
Issued by NWS

Home | Current Version | Previous Version | Text Only | Print | Product List | Glossary On
Versions: 1 2 3 4 5 6 7 8 9 10 11 12 13 14 15 16 17 18 19
529
FTUS41 KCAR 032320
TAFFVE
TAF
KFVE 032320Z 0400/0424 33007G13KT P6SM SCT025 OVC060
      TEMPO 0400/0401 5SM -SHSN OVC022
     FM040100 32007G13KT P6SM VCSH OVC018
     FM041400 32010G17KT P6SM OVC025
     FM042000 30007KT P6SM BKN030=

USA.gov is the U.S. government's official web portal to all federal, state and local government web resources and services.